Applegate, Oregon
Current Conditions -  °F | °C
As of 7:53 AM on Wednesday 26 Nov 2014 (Local Time) from KMFR Reporting Station
Haze Haze  
Wind Chill: 42°   Ceiling: 200
Heat Index: 45°   Visibility: 2.5mi
Dew Point: 44°   Wind: 6mph
Humidity: 97%   Direction: 350°N
Pressure: 30.3"   Gusts: NA
Location:  42.1499°N, 123.043°W
Report Text: KMFR 261553Z 35005KT 2 1/2SM BR OVC002 07/07 A3030 RMK AO2 SLP264 T00720067
Loading
Personal Weather Stations






























Interactive Weather Map New forecast layout! Learn more

10-Day Weather Forecast

Advertisements
Track Severe Weather on mobile